sensor_id;sensor_type;location;lat;lon;timestamp;P1;durP1;ratioP1;P2;durP2;ratioP2
67995;SDS011;54772;53.544;49.324;2022-11-20T00:00:48;6.40;;;4.20;;
67995;SDS011;54772;53.544;49.324;2022-11-20T00:03:36;6.45;;;4.80;;
67995;SDS011;54772;53.544;49.324;2022-11-20T00:06:23;6.80;;;4.87;;
67995;SDS011;54772;53.544;49.324;2022-11-20T00:09:10;7.68;;;5.25;;
67995;SDS011;54772;53.544;49.324;2022-11-20T00:14:43;7.62;;;4.53;;
67995;SDS011;54772;53.544;49.324;2022-11-20T00:17:30;8.10;;;4.68;;
67995;SDS011;54772;53.544;49.324;2022-11-20T00:23:03;7.90;;;4.87;;
67995;SDS011;54772;53.544;49.324;2022-11-20T00:25:52;6.95;;;4.72;;
67995;SDS011;54772;53.544;49.324;2022-11-20T00:28:39;6.78;;;5.07;;
67995;SDS011;54772;53.544;49.324;2022-11-20T00:31:26;5.62;;;4.40;;
67995;SDS011;54772;53.544;49.324;2022-11-20T00:34:13;6.55;;;4.68;;
67995;SDS011;54772;53.544;49.324;2022-11-20T00:37:00;7.45;;;5.00;;
67995;SDS011;54772;53.544;49.324;2022-11-20T00:39:46;6.37;;;4.80;;
67995;SDS011;54772;53.544;49.324;2022-11-20T00:42:33;7.47;;;5.15;;
67995;SDS011;54772;53.544;49.324;2022-11-20T00:45:19;6.62;;;5.03;;
67995;SDS011;54772;53.544;49.324;2022-11-20T00:48:06;8.90;;;5.00;;
67995;SDS011;54772;53.544;49.324;2022-11-20T00:50:53;5.75;;;4.30;;
67995;SDS011;54772;53.544;49.324;2022-11-20T00:53:40;6.97;;;4.68;;
67995;SDS011;54772;53.544;49.324;2022-11-20T00:56:27;6.87;;;4.65;;
67995;SDS011;54772;53.544;49.324;2022-11-20T00:59:14;7.55;;;4.97;;
67995;SDS011;54772;53.544;49.324;2022-11-20T01:02:00;6.47;;;4.90;;
67995;SDS011;54772;53.544;49.324;2022-11-20T01:04:47;6.82;;;5.00;;
67995;SDS011;54772;53.544;49.324;2022-11-20T01:07:33;6.68;;;4.90;;
67995;SDS011;54772;53.544;49.324;2022-11-20T01:10:20;7.05;;;4.93;;
67995;SDS011;54772;53.544;49.324;2022-11-20T01:13:07;6.90;;;4.90;;
67995;SDS011;54772;53.544;49.324;2022-11-20T01:16:14;8.18;;;5.18;;
67995;SDS011;54772;53.544;49.324;2022-11-20T01:19:10;6.57;;;4.45;;
67995;SDS011;54772;53.544;49.324;2022-11-20T01:21:58;6.70;;;4.97;;
67995;SDS011;54772;53.544;49.324;2022-11-20T01:24:45;7.15;;;5.12;;
67995;SDS011;54772;53.544;49.324;2022-11-20T01:27:32;7.50;;;4.82;;
67995;SDS011;54772;53.544;49.324;2022-11-20T01:30:19;8.55;;;5.40;;
67995;SDS011;54772;53.544;49.324;2022-11-20T01:33:05;6.70;;;4.78;;
67995;SDS011;54772;53.544;49.324;2022-11-20T01:35:52;7.00;;;4.95;;
67995;SDS011;54772;53.544;49.324;2022-11-20T01:38:50;6.90;;;5.30;;
67995;SDS011;54772;53.544;49.324;2022-11-20T01:41:38;7.20;;;5.12;;
67995;SDS011;54772;53.544;49.324;2022-11-20T01:47:40;6.62;;;4.80;;
67995;SDS011;54772;53.544;49.324;2022-11-20T01:50:29;7.70;;;5.25;;
67995;SDS011;54772;53.544;49.324;2022-11-20T01:53:18;8.70;;;5.97;;
67995;SDS011;54772;53.544;49.324;2022-11-20T01:56:08;7.43;;;5.15;;
67995;SDS011;54772;53.544;49.324;2022-11-20T01:58:58;8.60;;;5.50;;
67995;SDS011;54772;53.544;49.324;2022-11-20T02:01:46;8.75;;;5.62;;
67995;SDS011;54772;53.544;49.324;2022-11-20T02:04:33;7.70;;;5.50;;
67995;SDS011;54772;53.544;49.324;2022-11-20T02:07:20;8.65;;;5.78;;
67995;SDS011;54772;53.544;49.324;2022-11-20T02:10:07;8.68;;;5.15;;
67995;SDS011;54772;53.544;49.324;2022-11-20T02:12:54;8.13;;;5.28;;
67995;SDS011;54772;53.544;49.324;2022-11-20T02:15:59;7.97;;;5.22;;
67995;SDS011;54772;53.544;49.324;2022-11-20T02:18:47;8.05;;;5.37;;
67995;SDS011;54772;53.544;49.324;2022-11-20T02:21:35;7.20;;;5.18;;
67995;SDS011;54772;53.544;49.324;2022-11-20T02:24:49;9.60;;;5.43;;
67995;SDS011;54772;53.544;49.324;2022-11-20T02:27:36;9.52;;;5.35;;
67995;SDS011;54772;53.544;49.324;2022-11-20T02:33:10;7.78;;;5.32;;
67995;SDS011;54772;53.544;49.324;2022-11-20T02:35:56;6.80;;;4.78;;
67995;SDS011;54772;53.544;49.324;2022-11-20T02:38:43;7.55;;;5.10;;
67995;SDS011;54772;53.544;49.324;2022-11-20T02:41:30;6.95;;;5.03;;
67995;SDS011;54772;53.544;49.324;2022-11-20T02:44:18;7.80;;;4.50;;
67995;SDS011;54772;53.544;49.324;2022-11-20T02:49:51;7.03;;;4.80;;
67995;SDS011;54772;53.544;49.324;2022-11-20T02:55:25;6.03;;;4.32;;
67995;SDS011;54772;53.544;49.324;2022-11-20T02:58:11;7.12;;;4.57;;
67995;SDS011;54772;53.544;49.324;2022-11-20T03:00:58;7.30;;;4.68;;
67995;SDS011;54772;53.544;49.324;2022-11-20T03:09:20;5.95;;;4.37;;
67995;SDS011;54772;53.544;49.324;2022-11-20T03:12:07;6.82;;;4.70;;
67995;SDS011;54772;53.544;49.324;2022-11-20T03:14:53;6.20;;;4.30;;
67995;SDS011;54772;53.544;49.324;2022-11-20T03:17:40;6.40;;;4.03;;
67995;SDS011;54772;53.544;49.324;2022-11-20T03:20:26;7.22;;;4.35;;
67995;SDS011;54772;53.544;49.324;2022-11-20T03:23:13;7.80;;;4.95;;
67995;SDS011;54772;53.544;49.324;2022-11-20T03:26:14;6.95;;;4.47;;
67995;SDS011;54772;53.544;49.324;2022-11-20T03:29:03;7.60;;;5.15;;
67995;SDS011;54772;53.544;49.324;2022-11-20T03:31:50;6.12;;;4.40;;
67995;SDS011;54772;53.544;49.324;2022-11-20T03:34:37;7.78;;;4.85;;
67995;SDS011;54772;53.544;49.324;2022-11-20T03:37:23;8.13;;;5.35;;
67995;SDS011;54772;53.544;49.324;2022-11-20T03:40:11;6.43;;;4.60;;
67995;SDS011;54772;53.544;49.324;2022-11-20T03:42:57;7.55;;;4.47;;
67995;SDS011;54772;53.544;49.324;2022-11-20T03:45:45;7.15;;;4.80;;
67995;SDS011;54772;53.544;49.324;2022-11-20T03:48:31;7.53;;;4.97;;
67995;SDS011;54772;53.544;49.324;2022-11-20T03:51:20;7.57;;;5.15;;
67995;SDS011;54772;53.544;49.324;2022-11-20T03:54:07;7.32;;;4.82;;
67995;SDS011;54772;53.544;49.324;2022-11-20T03:56:54;6.60;;;4.72;;
67995;SDS011;54772;53.544;49.324;2022-11-20T03:59:41;6.75;;;4.60;;
67995;SDS011;54772;53.544;49.324;2022-11-20T04:02:28;7.93;;;5.43;;
67995;SDS011;54772;53.544;49.324;2022-11-20T04:05:15;8.43;;;5.43;;
67995;SDS011;54772;53.544;49.324;2022-11-20T04:08:02;9.02;;;5.15;;
67995;SDS011;54772;53.544;49.324;2022-11-20T04:10:49;7.35;;;5.32;;
67995;SDS011;54772;53.544;49.324;2022-11-20T04:16:23;9.68;;;5.15;;
67995;SDS011;54772;53.544;49.324;2022-11-20T04:19:11;8.00;;;5.20;;
67995;SDS011;54772;53.544;49.324;2022-11-20T04:21:59;8.00;;;5.32;;
67995;SDS011;54772;53.544;49.324;2022-11-20T04:27:32;9.52;;;6.03;;
67995;SDS011;54772;53.544;49.324;2022-11-20T04:30:19;8.77;;;5.28;;
67995;SDS011;54772;53.544;49.324;2022-11-20T04:33:06;7.47;;;4.75;;
67995;SDS011;54772;53.544;49.324;2022-11-20T04:35:53;7.90;;;4.72;;
67995;SDS011;54772;53.544;49.324;2022-11-20T04:38:39;8.32;;;5.05;;
67995;SDS011;54772;53.544;49.324;2022-11-20T04:41:33;7.05;;;4.60;;
67995;SDS011;54772;53.544;49.324;2022-11-20T04:44:20;8.02;;;4.70;;
67995;SDS011;54772;53.544;49.324;2022-11-20T04:47:07;6.85;;;4.57;;
67995;SDS011;54772;53.544;49.324;2022-11-20T04:49:54;6.75;;;4.60;;
67995;SDS011;54772;53.544;49.324;2022-11-20T04:52:40;6.90;;;4.45;;
67995;SDS011;54772;53.544;49.324;2022-11-20T04:55:27;7.85;;;4.37;;
67995;SDS011;54772;53.544;49.324;2022-11-20T04:58:14;7.07;;;4.37;;
67995;SDS011;54772;53.544;49.324;2022-11-20T05:01:05;6.37;;;4.45;;
67995;SDS011;54772;53.544;49.324;2022-11-20T05:03:55;8.13;;;4.62;;
67995;SDS011;54772;53.544;49.324;2022-11-20T05:06:41;6.72;;;4.87;;
67995;SDS011;54772;53.544;49.324;2022-11-20T05:09:28;8.40;;;4.87;;
67995;SDS011;54772;53.544;49.324;2022-11-20T05:12:15;7.55;;;4.62;;
67995;SDS011;54772;53.544;49.324;2022-11-20T05:15:02;6.87;;;4.43;;
67995;SDS011;54772;53.544;49.324;2022-11-20T05:20:35;7.55;;;4.50;;
67995;SDS011;54772;53.544;49.324;2022-11-20T05:23:22;6.05;;;3.80;;
67995;SDS011;54772;53.544;49.324;2022-11-20T05:26:12;6.70;;;4.40;;
67995;SDS011;54772;53.544;49.324;2022-11-20T05:29:12;6.12;;;4.40;;
67995;SDS011;54772;53.544;49.324;2022-11-20T05:31:59;6.30;;;4.07;;
67995;SDS011;54772;53.544;49.324;2022-11-20T05:37:31;6.82;;;3.70;;
67995;SDS011;54772;53.544;49.324;2022-11-20T05:40:18;6.60;;;4.28;;
67995;SDS011;54772;53.544;49.324;2022-11-20T05:43:05;5.50;;;3.22;;
67995;SDS011;54772;53.544;49.324;2022-11-20T05:45:52;6.78;;;4.40;;
67995;SDS011;54772;53.544;49.324;2022-11-20T05:48:40;6.30;;;3.90;;
67995;SDS011;54772;53.544;49.324;2022-11-20T05:51:28;6.57;;;4.18;;
67995;SDS011;54772;53.544;49.324;2022-11-20T05:54:14;7.65;;;4.53;;
67995;SDS011;54772;53.544;49.324;2022-11-20T05:57:01;6.35;;;4.10;;
67995;SDS011;54772;53.544;49.324;2022-11-20T06:02:35;6.97;;;4.18;;
67995;SDS011;54772;53.544;49.324;2022-11-20T06:05:22;6.50;;;4.15;;
67995;SDS011;54772;53.544;49.324;2022-11-20T06:10:55;4.90;;;2.72;;
67995;SDS011;54772;53.544;49.324;2022-11-20T06:13:42;7.53;;;4.30;;
67995;SDS011;54772;53.544;49.324;2022-11-20T06:16:30;6.75;;;4.62;;
67995;SDS011;54772;53.544;49.324;2022-11-20T06:19:16;6.30;;;4.20;;
67995;SDS011;54772;53.544;49.324;2022-11-20T06:22:03;6.50;;;4.07;;
67995;SDS011;54772;53.544;49.324;2022-11-20T06:24:49;6.50;;;3.92;;
67995;SDS011;54772;53.544;49.324;2022-11-20T06:27:36;6.62;;;4.50;;
67995;SDS011;54772;53.544;49.324;2022-11-20T06:30:22;8.05;;;4.22;;
67995;SDS011;54772;53.544;49.324;2022-11-20T06:33:09;5.87;;;4.03;;
67995;SDS011;54772;53.544;49.324;2022-11-20T06:35:56;8.07;;;4.43;;
67995;SDS011;54772;53.544;49.324;2022-11-20T06:38:44;6.22;;;4.25;;
67995;SDS011;54772;53.544;49.324;2022-11-20T06:41:31;6.35;;;3.67;;
67995;SDS011;54772;53.544;49.324;2022-11-20T06:44:18;7.20;;;4.53;;
67995;SDS011;54772;53.544;49.324;2022-11-20T06:47:04;8.07;;;4.80;;
67995;SDS011;54772;53.544;49.324;2022-11-20T06:49:51;6.60;;;4.75;;
67995;SDS011;54772;53.544;49.324;2022-11-20T06:52:38;7.45;;;4.65;;
67995;SDS011;54772;53.544;49.324;2022-11-20T06:55:25;7.30;;;4.75;;
67995;SDS011;54772;53.544;49.324;2022-11-20T07:00:59;7.18;;;4.47;;
67995;SDS011;54772;53.544;49.324;2022-11-20T07:03:48;7.80;;;4.90;;
67995;SDS011;54772;53.544;49.324;2022-11-20T07:06:36;6.82;;;4.05;;
67995;SDS011;54772;53.544;49.324;2022-11-20T07:09:22;5.65;;;4.03;;
67995;SDS011;54772;53.544;49.324;2022-11-20T07:12:11;7.20;;;4.25;;
67995;SDS011;54772;53.544;49.324;2022-11-20T07:14:58;5.85;;;3.85;;
67995;SDS011;54772;53.544;49.324;2022-11-20T07:17:45;6.50;;;4.12;;
67995;SDS011;54772;53.544;49.324;2022-11-20T07:20:31;5.93;;;2.90;;
67995;SDS011;54772;53.544;49.324;2022-11-20T07:23:18;6.30;;;4.07;;
67995;SDS011;54772;53.544;49.324;2022-11-20T07:26:06;6.20;;;4.18;;
67995;SDS011;54772;53.544;49.324;2022-11-20T07:28:54;7.25;;;4.80;;
67995;SDS011;54772;53.544;49.324;2022-11-20T07:31:40;7.55;;;4.40;;
67995;SDS011;54772;53.544;49.324;2022-11-20T07:34:28;4.35;;;2.95;;
67995;SDS011;54772;53.544;49.324;2022-11-20T07:37:14;5.55;;;3.45;;
67995;SDS011;54772;53.544;49.324;2022-11-20T07:40:01;5.80;;;3.35;;
67995;SDS011;54772;53.544;49.324;2022-11-20T07:42:48;7.62;;;4.62;;
67995;SDS011;54772;53.544;49.324;2022-11-20T07:45:36;7.22;;;4.37;;
67995;SDS011;54772;53.544;49.324;2022-11-20T07:48:23;7.97;;;4.93;;
67995;SDS011;54772;53.544;49.324;2022-11-20T07:51:10;9.48;;;5.70;;
67995;SDS011;54772;53.544;49.324;2022-11-20T07:53:57;8.45;;;4.68;;
67995;SDS011;54772;53.544;49.324;2022-11-20T07:56:43;7.35;;;4.50;;
67995;SDS011;54772;53.544;49.324;2022-11-20T07:59:30;8.27;;;5.43;;
67995;SDS011;54772;53.544;49.324;2022-11-20T08:02:16;8.63;;;5.53;;
67995;SDS011;54772;53.544;49.324;2022-11-20T08:05:03;9.35;;;5.55;;
67995;SDS011;54772;53.544;49.324;2022-11-20T08:07:50;8.50;;;5.15;;
67995;SDS011;54772;53.544;49.324;2022-11-20T08:10:37;8.57;;;5.03;;
67995;SDS011;54772;53.544;49.324;2022-11-20T08:13:24;9.00;;;5.78;;
67995;SDS011;54772;53.544;49.324;2022-11-20T08:16:29;8.85;;;5.80;;
67995;SDS011;54772;53.544;49.324;2022-11-20T08:19:17;6.87;;;4.30;;
67995;SDS011;54772;53.544;49.324;2022-11-20T08:22:04;9.43;;;5.85;;
67995;SDS011;54772;53.544;49.324;2022-11-20T08:27:37;9.90;;;5.87;;
67995;SDS011;54772;53.544;49.324;2022-11-20T08:33:10;9.75;;;5.50;;
67995;SDS011;54772;53.544;49.324;2022-11-20T08:36:01;7.97;;;5.22;;
67995;SDS011;54772;53.544;49.324;2022-11-20T08:38:52;8.00;;;5.12;;
67995;SDS011;54772;53.544;49.324;2022-11-20T08:41:39;8.65;;;5.35;;
67995;SDS011;54772;53.544;49.324;2022-11-20T08:44:26;8.57;;;5.72;;
67995;SDS011;54772;53.544;49.324;2022-11-20T08:49:59;8.57;;;5.43;;
67995;SDS011;54772;53.544;49.324;2022-11-20T08:52:46;8.07;;;5.20;;
67995;SDS011;54772;53.544;49.324;2022-11-20T08:55:33;8.50;;;5.25;;
67995;SDS011;54772;53.544;49.324;2022-11-20T08:58:20;10.40;;;5.43;;
67995;SDS011;54772;53.544;49.324;2022-11-20T09:01:07;8.50;;;5.78;;
67995;SDS011;54772;53.544;49.324;2022-11-20T09:03:56;7.12;;;4.45;;
67995;SDS011;54772;53.544;49.324;2022-11-20T09:06:45;9.98;;;5.78;;
67995;SDS011;54772;53.544;49.324;2022-11-20T09:09:35;8.55;;;5.57;;
67995;SDS011;54772;53.544;49.324;2022-11-20T09:12:22;8.25;;;5.10;;
67995;SDS011;54772;53.544;49.324;2022-11-20T09:15:09;9.93;;;5.78;;
67995;SDS011;54772;53.544;49.324;2022-11-20T09:17:57;10.45;;;5.80;;
67995;SDS011;54772;53.544;49.324;2022-11-20T09:20:45;9.27;;;5.78;;
67995;SDS011;54772;53.544;49.324;2022-11-20T09:23:33;9.80;;;6.37;;
67995;SDS011;54772;53.544;49.324;2022-11-20T09:26:20;9.48;;;5.90;;
67995;SDS011;54772;53.544;49.324;2022-11-20T09:29:06;11.02;;;6.87;;
67995;SDS011;54772;53.544;49.324;2022-11-20T09:31:53;12.73;;;6.57;;
67995;SDS011;54772;53.544;49.324;2022-11-20T09:34:40;10.63;;;6.80;;
67995;SDS011;54772;53.544;49.324;2022-11-20T09:37:26;8.48;;;5.85;;
67995;SDS011;54772;53.544;49.324;2022-11-20T09:43:12;11.73;;;7.10;;
67995;SDS011;54772;53.544;49.324;2022-11-20T09:46:29;9.15;;;6.12;;
67995;SDS011;54772;53.544;49.324;2022-11-20T09:56:13;9.57;;;6.00;;
67995;SDS011;54772;53.544;49.324;2022-11-20T09:59:02;9.02;;;6.00;;
67995;SDS011;54772;53.544;49.324;2022-11-20T10:01:50;9.07;;;5.70;;
67995;SDS011;54772;53.544;49.324;2022-11-20T10:04:37;8.55;;;5.65;;
67995;SDS011;54772;53.544;49.324;2022-11-20T10:10:29;8.98;;;5.78;;
67995;SDS011;54772;53.544;49.324;2022-11-20T10:17:03;8.93;;;5.72;;
67995;SDS011;54772;53.544;49.324;2022-11-20T10:21:06;8.90;;;5.55;;
67995;SDS011;54772;53.544;49.324;2022-11-20T10:26:28;7.18;;;4.95;;
67995;SDS011;54772;53.544;49.324;2022-11-20T10:29:34;7.90;;;4.40;;
67995;SDS011;54772;53.544;49.324;2022-11-20T10:32:24;8.77;;;5.07;;
67995;SDS011;54772;53.544;49.324;2022-11-20T10:35:28;7.53;;;5.00;;
67995;SDS011;54772;53.544;49.324;2022-11-20T10:38:28;8.57;;;5.10;;
67995;SDS011;54772;53.544;49.324;2022-11-20T10:41:44;8.20;;;5.32;;
67995;SDS011;54772;53.544;49.324;2022-11-20T10:44:34;9.65;;;6.18;;
67995;SDS011;54772;53.544;49.324;2022-11-20T10:47:41;7.80;;;5.72;;
67995;SDS011;54772;53.544;49.324;2022-11-20T10:50:53;8.05;;;5.72;;
67995;SDS011;54772;53.544;49.324;2022-11-20T10:56:47;10.57;;;5.50;;
67995;SDS011;54772;53.544;49.324;2022-11-20T10:59:47;8.73;;;5.72;;
67995;SDS011;54772;53.544;49.324;2022-11-20T11:02:40;6.95;;;5.03;;
67995;SDS011;54772;53.544;49.324;2022-11-20T11:05:32;6.80;;;4.18;;
67995;SDS011;54772;53.544;49.324;2022-11-20T11:08:27;7.78;;;5.15;;
67995;SDS011;54772;53.544;49.324;2022-11-20T11:11:27;8.82;;;5.43;;
67995;SDS011;54772;53.544;49.324;2022-11-20T11:14:15;9.35;;;5.87;;
67995;SDS011;54772;53.544;49.324;2022-11-20T11:17:03;8.05;;;5.60;;
67995;SDS011;54772;53.544;49.324;2022-11-20T11:23:10;9.40;;;5.15;;
67995;SDS011;54772;53.544;49.324;2022-11-20T11:26:19;7.55;;;4.93;;
67995;SDS011;54772;53.544;49.324;2022-11-20T11:29:15;8.45;;;5.20;;
67995;SDS011;54772;53.544;49.324;2022-11-20T11:32:20;7.30;;;5.17;;
67995;SDS011;54772;53.544;49.324;2022-11-20T11:35:27;9.00;;;5.50;;
67995;SDS011;54772;53.544;49.324;2022-11-20T11:38:15;9.20;;;5.55;;
67995;SDS011;54772;53.544;49.324;2022-11-20T11:41:05;9.40;;;5.37;;
67995;SDS011;54772;53.544;49.324;2022-11-20T11:43:56;8.45;;;4.93;;
67995;SDS011;54772;53.544;49.324;2022-11-20T11:47:26;7.43;;;5.28;;
67995;SDS011;54772;53.544;49.324;2022-11-20T11:50:21;8.65;;;5.00;;
67995;SDS011;54772;53.544;49.324;2022-11-20T11:53:09;7.68;;;5.22;;
67995;SDS011;54772;53.544;49.324;2022-11-20T11:56:08;7.53;;;4.53;;
67995;SDS011;54772;53.544;49.324;2022-11-20T11:58:56;8.43;;;5.20;;
67995;SDS011;54772;53.544;49.324;2022-11-20T12:01:50;7.95;;;5.43;;
67995;SDS011;54772;53.544;49.324;2022-11-20T12:04:44;7.68;;;5.18;;
67995;SDS011;54772;53.544;49.324;2022-11-20T12:07:39;7.75;;;5.05;;
67995;SDS011;54772;53.544;49.324;2022-11-20T12:10:40;8.30;;;5.35;;
67995;SDS011;54772;53.544;49.324;2022-11-20T12:16:43;8.60;;;4.78;;
67995;SDS011;54772;53.544;49.324;2022-11-20T12:19:30;9.98;;;6.45;;
67995;SDS011;54772;53.544;49.324;2022-11-20T12:25:33;18.45;;;10.82;;
67995;SDS011;54772;53.544;49.324;2022-11-20T12:59:40;13.98;;;8.25;;
67995;SDS011;54772;53.544;49.324;2022-11-20T13:02:54;12.43;;;7.95;;
67995;SDS011;54772;53.544;49.324;2022-11-20T13:06:13;14.00;;;8.80;;
67995;SDS011;54772;53.544;49.324;2022-11-20T13:09:02;14.13;;;9.48;;
67995;SDS011;54772;53.544;49.324;2022-11-20T13:14:56;17.62;;;10.48;;
67995;SDS011;54772;53.544;49.324;2022-11-20T13:17:47;12.07;;;6.95;;
67995;SDS011;54772;53.544;49.324;2022-11-20T13:20:43;14.87;;;7.70;;
67995;SDS011;54772;53.544;49.324;2022-11-20T13:23:32;13.38;;;7.87;;
67995;SDS011;54772;53.544;49.324;2022-11-20T13:26:24;10.75;;;6.90;;
67995;SDS011;54772;53.544;49.324;2022-11-20T13:29:16;12.75;;;7.53;;
67995;SDS011;54772;53.544;49.324;2022-11-20T13:32:12;10.18;;;7.10;;
67995;SDS011;54772;53.544;49.324;2022-11-20T13:35:01;12.95;;;7.95;;
67995;SDS011;54772;53.544;49.324;2022-11-20T13:37:49;12.10;;;7.43;;
67995;SDS011;54772;53.544;49.324;2022-11-20T13:40:59;10.68;;;6.80;;
67995;SDS011;54772;53.544;49.324;2022-11-20T13:44:10;11.32;;;7.28;;
67995;SDS011;54772;53.544;49.324;2022-11-20T13:47:00;13.70;;;8.00;;
67995;SDS011;54772;53.544;49.324;2022-11-20T13:52:43;11.68;;;6.43;;
67995;SDS011;54772;53.544;49.324;2022-11-20T13:55:53;10.82;;;6.85;;
67995;SDS011;54772;53.544;49.324;2022-11-20T14:02:16;11.10;;;7.05;;
67995;SDS011;54772;53.544;49.324;2022-11-20T14:05:03;10.75;;;7.18;;
67995;SDS011;54772;53.544;49.324;2022-11-20T14:07:51;10.35;;;6.68;;
67995;SDS011;54772;53.544;49.324;2022-11-20T14:10:38;11.88;;;7.28;;
67995;SDS011;54772;53.544;49.324;2022-11-20T14:16:11;14.52;;;8.40;;
67995;SDS011;54772;53.544;49.324;2022-11-20T14:19:08;10.00;;;6.87;;
67995;SDS011;54772;53.544;49.324;2022-11-20T14:22:08;10.80;;;6.40;;
67995;SDS011;54772;53.544;49.324;2022-11-20T14:27:53;12.57;;;7.45;;
67995;SDS011;54772;53.544;49.324;2022-11-20T14:30:45;11.12;;;6.97;;
67995;SDS011;54772;53.544;49.324;2022-11-20T14:33:33;11.68;;;7.87;;
67995;SDS011;54772;53.544;49.324;2022-11-20T14:36:21;13.13;;;7.80;;
67995;SDS011;54772;53.544;49.324;2022-11-20T14:39:22;12.70;;;7.95;;
67995;SDS011;54772;53.544;49.324;2022-11-20T14:42:15;11.12;;;6.15;;
67995;SDS011;54772;53.544;49.324;2022-11-20T14:45:03;12.57;;;7.60;;
67995;SDS011;54772;53.544;49.324;2022-11-20T14:47:51;12.07;;;7.40;;
67995;SDS011;54772;53.544;49.324;2022-11-20T14:50:38;10.23;;;7.05;;
67995;SDS011;54772;53.544;49.324;2022-11-20T14:53:25;10.20;;;6.57;;
67995;SDS011;54772;53.544;49.324;2022-11-20T14:56:12;9.93;;;6.07;;
67995;SDS011;54772;53.544;49.324;2022-11-20T14:59:08;16.73;;;6.90;;
67995;SDS011;54772;53.544;49.324;2022-11-20T15:02:01;11.12;;;6.75;;
67995;SDS011;54772;53.544;49.324;2022-11-20T15:04:57;9.95;;;6.03;;
67995;SDS011;54772;53.544;49.324;2022-11-20T15:07:46;11.25;;;6.45;;
67995;SDS011;54772;53.544;49.324;2022-11-20T15:10:34;9.32;;;5.65;;
67995;SDS011;54772;53.544;49.324;2022-11-20T15:13:26;9.82;;;5.85;;
67995;SDS011;54772;53.544;49.324;2022-11-20T15:16:20;10.13;;;6.32;;
67995;SDS011;54772;53.544;49.324;2022-11-20T15:19:11;10.30;;;6.22;;
67995;SDS011;54772;53.544;49.324;2022-11-20T15:22:02;9.02;;;5.85;;
67995;SDS011;54772;53.544;49.324;2022-11-20T15:24:53;13.10;;;7.12;;
67995;SDS011;54772;53.544;49.324;2022-11-20T15:27:39;11.80;;;6.10;;
67995;SDS011;54772;53.544;49.324;2022-11-20T15:30:27;9.98;;;6.20;;
67995;SDS011;54772;53.544;49.324;2022-11-20T15:33:14;10.52;;;6.18;;
67995;SDS011;54772;53.544;49.324;2022-11-20T15:36:02;12.27;;;7.18;;
67995;SDS011;54772;53.544;49.324;2022-11-20T15:38:49;12.45;;;7.05;;
67995;SDS011;54772;53.544;49.324;2022-11-20T15:41:36;13.45;;;7.60;;
67995;SDS011;54772;53.544;49.324;2022-11-20T15:44:23;12.23;;;7.28;;
67995;SDS011;54772;53.544;49.324;2022-11-20T15:49:56;14.48;;;8.05;;
67995;SDS011;54772;53.544;49.324;2022-11-20T15:52:42;16.17;;;8.40;;
67995;SDS011;54772;53.544;49.324;2022-11-20T15:55:29;17.87;;;8.02;;
67995;SDS011;54772;53.544;49.324;2022-11-20T15:58:17;14.10;;;8.35;;
67995;SDS011;54772;53.544;49.324;2022-11-20T16:01:04;14.80;;;8.10;;
67995;SDS011;54772;53.544;49.324;2022-11-20T16:06:37;17.73;;;9.05;;
67995;SDS011;54772;53.544;49.324;2022-11-20T16:09:27;17.27;;;9.57;;
67995;SDS011;54772;53.544;49.324;2022-11-20T16:15:20;15.18;;;8.73;;
67995;SDS011;54772;53.544;49.324;2022-11-20T16:18:25;16.12;;;8.93;;
67995;SDS011;54772;53.544;49.324;2022-11-20T16:21:12;14.25;;;8.07;;
67995;SDS011;54772;53.544;49.324;2022-11-20T16:23:59;19.85;;;10.02;;
67995;SDS011;54772;53.544;49.324;2022-11-20T16:26:47;24.98;;;10.40;;
67995;SDS011;54772;53.544;49.324;2022-11-20T16:32:21;14.43;;;8.27;;
67995;SDS011;54772;53.544;49.324;2022-11-20T16:35:10;18.70;;;9.63;;
67995;SDS011;54772;53.544;49.324;2022-11-20T16:37:58;18.52;;;9.90;;
67995;SDS011;54772;53.544;49.324;2022-11-20T16:40:44;21.12;;;9.50;;
67995;SDS011;54772;53.544;49.324;2022-11-20T16:43:32;17.52;;;10.05;;
67995;SDS011;54772;53.544;49.324;2022-11-20T16:46:19;18.55;;;10.15;;
67995;SDS011;54772;53.544;49.324;2022-11-20T16:49:11;20.60;;;9.80;;
67995;SDS011;54772;53.544;49.324;2022-11-20T16:51:58;20.02;;;11.75;;
67995;SDS011;54772;53.544;49.324;2022-11-20T16:54:45;20.17;;;10.50;;
67995;SDS011;54772;53.544;49.324;2022-11-20T16:57:32;23.85;;;11.85;;
67995;SDS011;54772;53.544;49.324;2022-11-20T17:00:19;21.08;;;12.20;;
67995;SDS011;54772;53.544;49.324;2022-11-20T17:03:06;18.35;;;9.57;;
67995;SDS011;54772;53.544;49.324;2022-11-20T17:05:53;18.98;;;10.77;;
67995;SDS011;54772;53.544;49.324;2022-11-20T17:08:40;20.92;;;10.95;;
67995;SDS011;54772;53.544;49.324;2022-11-20T17:11:27;17.95;;;9.98;;
67995;SDS011;54772;53.544;49.324;2022-11-20T17:14:13;18.52;;;9.38;;
67995;SDS011;54772;53.544;49.324;2022-11-20T17:19:46;18.42;;;9.82;;
67995;SDS011;54772;53.544;49.324;2022-11-20T17:22:33;15.40;;;9.35;;
67995;SDS011;54772;53.544;49.324;2022-11-20T17:25:20;15.05;;;8.38;;
67995;SDS011;54772;53.544;49.324;2022-11-20T17:28:06;13.80;;;8.07;;
67995;SDS011;54772;53.544;49.324;2022-11-20T17:31:03;13.73;;;7.80;;
67995;SDS011;54772;53.544;49.324;2022-11-20T17:33:52;12.80;;;7.50;;
67995;SDS011;54772;53.544;49.324;2022-11-20T17:36:38;12.18;;;6.50;;
67995;SDS011;54772;53.544;49.324;2022-11-20T17:39:28;11.85;;;6.82;;
67995;SDS011;54772;53.544;49.324;2022-11-20T17:42:15;13.02;;;7.47;;
67995;SDS011;54772;53.544;49.324;2022-11-20T17:45:11;10.75;;;6.57;;
67995;SDS011;54772;53.544;49.324;2022-11-20T17:47:57;13.23;;;7.62;;
67995;SDS011;54772;53.544;49.324;2022-11-20T17:50:44;12.27;;;7.20;;
67995;SDS011;54772;53.544;49.324;2022-11-20T17:53:31;10.32;;;6.22;;
67995;SDS011;54772;53.544;49.324;2022-11-20T17:56:19;8.18;;;5.22;;
67995;SDS011;54772;53.544;49.324;2022-11-20T17:59:24;9.23;;;6.12;;
67995;SDS011;54772;53.544;49.324;2022-11-20T18:02:11;8.45;;;6.12;;
67995;SDS011;54772;53.544;49.324;2022-11-20T18:04:58;9.75;;;5.93;;
67995;SDS011;54772;53.544;49.324;2022-11-20T18:07:45;9.35;;;5.80;;
67995;SDS011;54772;53.544;49.324;2022-11-20T18:13:19;10.43;;;6.43;;
67995;SDS011;54772;53.544;49.324;2022-11-20T18:16:26;15.48;;;8.75;;
67995;SDS011;54772;53.544;49.324;2022-11-20T18:19:17;12.07;;;7.82;;
67995;SDS011;54772;53.544;49.324;2022-11-20T18:22:09;12.45;;;6.70;;
67995;SDS011;54772;53.544;49.324;2022-11-20T18:24:56;17.73;;;9.77;;
67995;SDS011;54772;53.544;49.324;2022-11-20T18:27:43;17.08;;;10.23;;
67995;SDS011;54772;53.544;49.324;2022-11-20T18:30:30;15.68;;;10.18;;
67995;SDS011;54772;53.544;49.324;2022-11-20T18:33:17;14.30;;;9.45;;
67995;SDS011;54772;53.544;49.324;2022-11-20T18:39:03;16.92;;;10.07;;
67995;SDS011;54772;53.544;49.324;2022-11-20T18:41:50;20.55;;;10.77;;
67995;SDS011;54772;53.544;49.324;2022-11-20T18:44:56;20.02;;;10.63;;
67995;SDS011;54772;53.544;49.324;2022-11-20T18:47:43;19.52;;;10.63;;
67995;SDS011;54772;53.544;49.324;2022-11-20T18:50:31;18.23;;;10.00;;
67995;SDS011;54772;53.544;49.324;2022-11-20T18:53:17;18.55;;;10.20;;
67995;SDS011;54772;53.544;49.324;2022-11-20T18:56:04;18.40;;;9.75;;
67995;SDS011;54772;53.544;49.324;2022-11-20T18:58:53;15.93;;;8.63;;
67995;SDS011;54772;53.544;49.324;2022-11-20T19:01:40;14.00;;;8.07;;
67995;SDS011;54772;53.544;49.324;2022-11-20T19:04:27;17.12;;;9.73;;
67995;SDS011;54772;53.544;49.324;2022-11-20T19:07:15;20.98;;;11.25;;
67995;SDS011;54772;53.544;49.324;2022-11-20T19:10:01;20.58;;;11.00;;